Strasbourg, France
Current Conditions -  °F | °C
As of 11:30 AM on Thursday 27 Nov 2014 (Local Time) from LFST Reporting Station
Light Rain Light Rain  
Wind Chill: 45°   Ceiling: 500
Heat Index: 45°   Visibility: 2.7mi
Dew Point: 43°   Wind: 3mph
Humidity: 93%   Direction: NA
Pressure: 29.8"   Gusts: NA
Location:  48.58°N, 7.74°E
Report Text: LFST 271030Z AUTO VRB03KT 4400 -RA BR OVC005 07/06 Q1009
Loading
Personal Weather Stations






























Interactive Weather Map New forecast layout! Learn more

10-Day Weather Forecast

Advertisements
Track Severe Weather on mobile